Time;durP1;ratioP1;P1;durP2;ratioP2;P2;SDS_P1;SDS_P2;PMS_P1;PMS_P2;Temp;Humidity;BMP_temperature;BMP_pressure;BME280_temperature;BME280_humidity;BME280_pressure;Samples;Min_cycle;Max_cycle;Signal;HPM_P1;HPM_P2
2024/03/19 00:00:41;;;;;;;32.70;17.20;;;;;;;2.02;89.55;100647.56;131287;1253;108777;-81
2024/03/19 00:04:06;;;;;;;33.10;15.40;;;;;;;1.94;89.56;100648.02;131317;1251;109835;-79
2024/03/19 00:07:11;;;;;;;28.90;14.50;;;;;;;1.88;89.55;100646.06;131488;1254;107090;-80
2024/03/19 00:10:17;;;;;;;22.70;11.50;;;;;;;1.84;89.50;100647.16;131384;1253;107693;-81
2024/03/19 00:13:22;;;;;;;26.70;14.30;;;;;;;1.83;89.33;100648.82;131319;1248;106560;-81
2024/03/19 00:16:27;;;;;;;25.20;12.90;;;;;;;1.79;89.12;100643.42;131275;1253;107836;-83
2024/03/19 00:19:33;;;;;;;23.40;12.50;;;;;;;1.72;88.73;100641.91;131324;1261;106873;-83
2024/03/19 00:22:38;;;;;;;23.40;12.70;;;;;;;1.68;88.97;100646.17;131297;1261;108511;-83
2024/03/19 00:25:43;;;;;;;21.40;12.40;;;;;;;1.64;88.97;100647.48;131293;1254;107712;-82
2024/03/19 00:28:48;;;;;;;21.00;12.10;;;;;;;1.57;88.91;100651.52;131450;1253;108625;-81
2024/03/19 00:31:54;;;;;;;22.40;11.70;;;;;;;1.50;88.92;100654.50;131123;1254;107231;-83
2024/03/19 00:34:59;;;;;;;18.50;11.10;;;;;;;1.44;88.89;100656.09;131262;1254;108692;-83
2024/03/19 00:38:04;;;;;;;18.40;10.60;;;;;;;1.36;88.87;100659.63;131336;1253;106990;-81
2024/03/19 00:41:10;;;;;;;22.30;12.10;;;;;;;1.28;88.86;100657.14;131409;1251;106370;-83
2024/03/19 00:44:15;;;;;;;20.80;11.80;;;;;;;1.22;88.90;100656.09;131261;1254;108046;-83
2024/03/19 00:47:20;;;;;;;17.40;9.50;;;;;;;1.16;88.82;100658.28;131395;1251;108748;-81
2024/03/19 00:50:25;;;;;;;20.10;11.70;;;;;;;1.14;88.94;100657.51;131267;1253;108623;-81
2024/03/19 00:53:30;;;;;;;21.70;12.00;;;;;;;1.15;88.78;100658.53;131345;1253;108635;-82
2024/03/19 00:56:35;;;;;;;22.00;12.10;;;;;;;1.17;88.89;100661.06;131389;1251;106901;-82
2024/03/19 00:59:40;;;;;;;19.60;11.10;;;;;;;1.16;88.54;100662.31;131304;1253;108598;-81
2024/03/19 01:02:47;;;;;;;22.80;12.70;;;;;;;1.13;88.41;100664.23;131488;1254;108755;-81
2024/03/19 01:05:52;;;;;;;21.70;11.30;;;;;;;1.07;88.20;100667.20;131392;1263;106802;-81
2024/03/19 01:08:57;;;;;;;23.90;12.90;;;;;;;1.01;88.19;100666.48;131271;1254;108644;-82
2024/03/19 01:12:03;;;;;;;24.50;13.60;;;;;;;0.96;88.29;100670.77;131437;1254;109163;-81
2024/03/19 01:15:09;;;;;;;23.80;12.60;;;;;;;0.89;88.07;100676.03;131497;1253;107058;-81
2024/03/19 01:18:14;;;;;;;25.90;13.50;;;;;;;0.79;87.89;100677.23;131502;1261;108514;-82
2024/03/19 01:21:19;;;;;;;29.50;14.70;;;;;;;0.71;87.73;100679.58;131412;1253;106948;-82
2024/03/19 01:24:25;;;;;;;29.60;15.20;;;;;;;0.64;87.83;100681.88;131252;1261;109593;-82
2024/03/19 01:27:30;;;;;;;31.20;14.40;;;;;;;0.53;87.74;100679.44;131436;1254;108224;-83
2024/03/19 01:30:35;;;;;;;29.80;13.50;;;;;;;0.49;87.52;100680.92;131195;1263;107382;-82
2024/03/19 01:33:41;;;;;;;27.90;12.80;;;;;;;0.50;88.04;100682.77;131371;1254;106591;-83
2024/03/19 01:36:46;;;;;;;28.70;14.00;;;;;;;0.55;87.91;100680.94;131308;1250;106344;-83
2024/03/19 01:39:52;;;;;;;27.20;13.80;;;;;;;0.58;87.44;100681.66;131355;1248;109480;-83
2024/03/19 01:42:57;;;;;;;25.10;13.30;;;;;;;0.43;86.87;100680.14;131201;1263;108519;-82
2024/03/19 01:46:27;;;;;;;28.40;14.40;;;;;;;0.33;86.84;100679.23;131431;1252;108245;-81
2024/03/19 01:49:34;;;;;;;33.90;15.70;;;;;;;0.30;87.07;100680.98;131359;1253;106348;-83
2024/03/19 01:52:42;;;;;;;35.90;17.30;;;;;;;0.25;86.97;100678.25;131330;1254;106403;-83
2024/03/19 01:55:47;;;;;;;37.40;16.90;;;;;;;0.25;87.33;100682.45;131339;1253;107739;-83
2024/03/19 01:58:54;;;;;;;48.80;21.90;;;;;;;0.32;87.48;100682.07;131321;1252;106387;-82
2024/03/19 02:02:00;;;;;;;44.90;19.80;;;;;;;0.37;87.63;100681.52;131476;1261;107568;-83
2024/03/19 02:05:07;;;;;;;46.60;21.20;;;;;;;0.36;87.41;100679.60;131457;1254;108654;-83
2024/03/19 02:08:12;;;;;;;53.60;21.90;;;;;;;0.37;87.61;100681.15;131408;1248;106762;-81
2024/03/19 02:11:23;;;;;;;44.00;16.70;;;;;;;0.36;87.51;100681.88;131397;1255;106395;-81
2024/03/19 02:14:28;;;;;;;39.40;15.00;;;;;;;0.30;86.74;100683.27;131429;1257;106459;-80
2024/03/19 02:17:33;;;;;;;40.90;17.00;;;;;;;0.29;87.21;100683.67;131505;1251;107735;-80
2024/03/19 02:20:38;;;;;;;36.90;15.60;;;;;;;0.32;87.28;100684.20;131519;1261;107766;-81
2024/03/19 02:23:43;;;;;;;50.30;18.00;;;;;;;0.37;87.61;100687.61;131497;1254;106539;-81
2024/03/19 02:26:48;;;;;;;51.60;19.20;;;;;;;0.42;87.66;100689.16;131639;1251;108697;-81
2024/03/19 02:29:53;;;;;;;63.60;21.50;;;;;;;0.43;87.45;100692.05;131298;1253;107701;-80
2024/03/19 02:32:58;;;;;;;61.40;21.70;;;;;;;0.43;87.29;100694.69;131187;1261;132575;-82
2024/03/19 02:36:04;;;;;;;47.90;18.70;;;;;;;0.41;87.21;100698.63;131296;1261;106261;-83
2024/03/19 02:39:11;;;;;;;37.90;16.30;;;;;;;0.37;87.16;100700.40;131278;1253;107706;-82
2024/03/19 02:42:16;;;;;;;40.30;17.10;;;;;;;0.35;87.26;100706.77;131282;1248;108644;-81
2024/03/19 02:45:22;;;;;;;45.60;18.90;;;;;;;0.34;87.32;100707.52;131249;1257;107588;-80
2024/03/19 02:48:27;;;;;;;42.10;16.80;;;;;;;0.34;87.46;100701.59;131391;1255;106376;-80
2024/03/19 02:51:33;;;;;;;40.90;17.40;;;;;;;0.34;87.55;100698.41;131292;1257;107180;-81
2024/03/19 02:54:38;;;;;;;32.90;14.10;;;;;;;0.39;87.50;100697.49;131470;1253;107743;-83
2024/03/19 02:57:45;;;;;;;40.50;17.70;;;;;;;0.47;87.51;100697.81;131226;1253;107784;-80
2024/03/19 03:00:52;;;;;;;42.90;17.40;;;;;;;0.53;87.38;100699.42;131302;1254;107208;-81
2024/03/19 03:03:57;;;;;;;39.30;16.90;;;;;;;0.56;87.14;100705.57;131319;1261;108593;-80
2024/03/19 03:07:02;;;;;;;37.80;16.80;;;;;;;0.55;87.05;100705.42;131294;1261;110076;-81
2024/03/19 03:10:08;;;;;;;43.90;17.90;;;;;;;0.58;87.24;100711.27;131283;1247;106764;-80
2024/03/19 03:13:13;;;;;;;39.40;18.60;;;;;;;0.59;87.03;100719.23;131378;1253;107059;-80
2024/03/19 03:16:18;;;;;;;42.30;17.80;;;;;;;0.61;87.22;100720.21;131162;1251;108850;-82
2024/03/19 03:19:24;;;;;;;36.00;17.90;;;;;;;0.60;87.03;100722.67;131148;1257;106427;-82
2024/03/19 03:22:29;;;;;;;38.90;17.40;;;;;;;0.59;87.12;100726.23;131093;1251;106702;-81
2024/03/19 03:25:34;;;;;;;42.30;18.30;;;;;;;0.61;87.27;100727.02;131330;1251;106347;-81
2024/03/19 03:28:39;;;;;;;44.70;18.80;;;;;;;0.62;87.13;100728.36;131441;1260;107738;-82
2024/03/19 03:31:45;;;;;;;43.90;17.90;;;;;;;0.62;87.14;100725.57;131410;1248;107777;-82
2024/03/19 03:34:51;;;;;;;42.90;17.80;;;;;;;0.64;87.11;100726.85;131364;1254;108786;-82
2024/03/19 03:37:56;;;;;;;43.50;17.80;;;;;;;0.71;87.14;100732.65;131463;1254;108475;-82
2024/03/19 03:41:07;;;;;;;62.00;23.40;;;;;;;0.80;87.12;100740.60;131440;1261;106290;-81
2024/03/19 03:44:13;;;;;;;54.40;22.30;;;;;;;0.88;87.21;100745.59;131481;1253;106265;-80
2024/03/19 03:47:18;;;;;;;52.40;20.30;;;;;;;0.95;87.17;100745.95;131434;1254;107830;-80
2024/03/19 03:50:23;;;;;;;44.30;19.90;;;;;;;0.97;87.04;100748.10;131305;1253;108664;-80
2024/03/19 03:53:29;;;;;;;33.10;15.30;;;;;;;1.01;87.14;100751.80;131274;1254;106151;-82
2024/03/19 03:56:34;;;;;;;37.60;16.30;;;;;;;0.99;87.19;100755.02;131462;1253;108805;-81
2024/03/19 03:59:42;;;;;;;29.90;14.70;;;;;;;1.00;87.22;100759.17;131349;1253;107635;-81
2024/03/19 04:02:48;;;;;;;28.60;14.60;;;;;;;1.00;87.33;100764.06;131390;1248;106139;-81
2024/03/19 04:05:53;;;;;;;27.70;14.90;;;;;;;1.01;87.31;100760.88;131381;1255;107806;-81
2024/03/19 04:08:59;;;;;;;27.30;14.10;;;;;;;1.06;87.45;100763.45;131357;1254;107669;-81
2024/03/19 04:12:04;;;;;;;26.80;14.10;;;;;;;1.09;87.55;100765.20;131430;1261;108443;-80
2024/03/19 04:15:12;;;;;;;24.10;13.10;;;;;;;1.12;87.49;100763.60;131475;1253;107612;-81
2024/03/19 04:18:17;;;;;;;23.40;12.90;;;;;;;1.15;87.46;100764.50;131580;1261;107730;-80
2024/03/19 04:21:22;;;;;;;31.50;16.30;;;;;;;1.20;87.52;100762.17;131525;1257;107008;-81
2024/03/19 04:24:27;;;;;;;31.70;16.20;;;;;;;1.25;87.55;100763.48;131201;1261;108293;-82
2024/03/19 04:27:32;;;;;;;27.20;14.60;;;;;;;1.31;87.65;100769.30;131406;1254;106249;-81
2024/03/19 04:30:38;;;;;;;26.90;15.40;;;;;;;1.34;87.53;100770.91;131036;1254;106627;-83
2024/03/19 04:33:43;;;;;;;25.50;14.70;;;;;;;1.26;87.41;100770.09;131436;1254;107094;-82
2024/03/19 04:36:48;;;;;;;24.10;14.00;;;;;;;1.19;87.58;100770.84;131499;1251;108680;-80
2024/03/19 04:39:53;;;;;;;24.10;13.60;;;;;;;1.02;87.90;100769.78;131519;1251;107232;-82
2024/03/19 04:42:58;;;;;;;25.10;13.80;;;;;;;0.85;88.32;100770.65;131541;1251;108742;-81
2024/03/19 04:46:03;;;;;;;25.40;13.30;;;;;;;0.71;88.62;100779.02;131634;1251;107735;-82
2024/03/19 04:49:08;;;;;;;25.80;14.10;;;;;;;0.67;88.69;100776.78;132408;1248;106532;-84
2024/03/19 04:52:13;;;;;;;30.90;17.10;;;;;;;0.72;89.15;100780.23;133605;1248;107791;-83
2024/03/19 04:55:19;;;;;;;29.10;15.60;;;;;;;0.70;89.17;100784.33;131672;1251;108560;-82
2024/03/19 04:58:24;;;;;;;34.70;18.20;;;;;;;0.69;89.41;100787.59;131233;1253;106652;-84
2024/03/19 05:01:29;;;;;;;31.10;16.50;;;;;;;0.70;89.40;100798.36;131090;1257;108328;-85
2024/03/19 05:04:35;;;;;;;37.90;20.80;;;;;;;0.65;89.41;100801.04;131341;1253;107224;-84
2024/03/19 05:07:43;;;;;;;42.30;23.60;;;;;;;0.57;89.65;100805.31;131637;1261;105410;-83
2024/03/19 05:10:49;;;;;;;41.00;22.70;;;;;;;0.46;90.38;100802.35;131622;1248;106751;-82
2024/03/19 05:13:54;;;;;;;37.80;19.00;;;;;;;0.34;90.13;100805.73;131751;1251;107632;-84
2024/03/19 05:16:59;;;;;;;40.00;22.40;;;;;;;0.32;90.38;100811.77;131785;1253;108332;-84
2024/03/19 05:20:07;;;;;;;35.20;18.30;;;;;;;0.35;90.39;100812.32;131691;1254;108754;-84
2024/03/19 05:23:12;;;;;;;36.60;19.80;;;;;;;0.34;91.07;100814.46;131484;1254;106654;-83
2024/03/19 05:26:17;;;;;;;38.30;20.90;;;;;;;0.34;91.04;100817.95;131396;1262;107893;-83
2024/03/19 05:29:22;;;;;;;33.90;18.40;;;;;;;0.33;91.06;100819.23;132976;1253;106865;-84
2024/03/19 05:32:27;;;;;;;33.90;17.40;;;;;;;0.36;90.75;100818.40;131250;1248;106852;-84
2024/03/19 05:35:32;;;;;;;37.80;18.30;;;;;;;0.43;90.80;100823.50;131341;1251;106329;-83
2024/03/19 05:38:38;;;;;;;33.70;18.10;;;;;;;0.56;90.87;100823.22;131443;1254;107576;-82
2024/03/19 05:41:43;;;;;;;30.40;15.40;;;;;;;0.62;90.59;100823.29;131375;1251;107587;-80
2024/03/19 05:44:49;;;;;;;28.70;14.90;;;;;;;0.64;90.50;100822.66;131370;1255;106420;-82
2024/03/19 05:47:54;;;;;;;30.30;16.90;;;;;;;0.67;90.64;100829.47;131596;1251;107683;-82
2024/03/19 05:50:59;;;;;;;32.10;17.80;;;;;;;0.69;90.88;100833.27;131452;1261;107703;-81
2024/03/19 05:54:04;;;;;;;29.20;16.20;;;;;;;0.72;90.66;100835.88;131517;1254;108596;-84
2024/03/19 05:57:09;;;;;;;31.60;16.30;;;;;;;0.80;90.58;100839.72;131088;1251;106963;-82
2024/03/19 06:00:21;;;;;;;29.30;16.20;;;;;;;0.90;90.80;100841.51;131287;1251;108740;-84
2024/03/19 06:03:27;;;;;;;28.20;14.50;;;;;;;0.84;90.74;100841.30;131121;1250;107584;-82
2024/03/19 06:06:33;;;;;;;25.50;13.90;;;;;;;0.83;91.12;100844.64;131225;1263;108517;-83
2024/03/19 06:09:43;;;;;;;22.00;13.40;;;;;;;0.72;91.95;100849.90;131426;1251;107837;-82
2024/03/19 06:12:48;;;;;;;26.30;14.80;;;;;;;0.66;92.22;100857.58;131250;1254;106486;-82
2024/03/19 06:15:54;;;;;;;26.60;14.60;;;;;;;0.67;92.36;100858.02;131390;1253;107584;-80
2024/03/19 06:18:59;;;;;;;27.90;15.90;;;;;;;0.69;92.34;100863.20;131530;1252;106393;-80
2024/03/19 06:22:04;;;;;;;33.30;17.60;;;;;;;0.70;92.09;100866.84;131459;1254;108720;-80
2024/03/19 06:25:10;;;;;;;32.30;17.10;;;;;;;0.68;92.15;100866.03;131388;1261;107385;-81
2024/03/19 06:28:15;;;;;;;33.10;17.30;;;;;;;0.60;93.12;100874.47;131430;1255;107788;-81
2024/03/19 06:31:21;;;;;;;30.30;16.20;;;;;;;0.50;93.74;100877.61;131467;1248;107837;-81
2024/03/19 06:34:26;;;;;;;36.20;18.30;;;;;;;0.43;93.78;100879.30;131318;1253;107146;-81
2024/03/19 06:37:32;;;;;;;30.60;18.20;;;;;;;0.44;93.66;100882.61;131344;1254;108743;-81
2024/03/19 06:40:37;;;;;;;38.20;19.60;;;;;;;0.46;93.72;100884.08;131369;1254;107714;-81
2024/03/19 06:43:42;;;;;;;32.10;17.40;;;;;;;0.48;93.26;100880.51;131293;1254;108485;-82
2024/03/19 06:46:48;;;;;;;37.10;19.80;;;;;;;0.53;93.07;100878.84;131450;1250;106867;-82
2024/03/19 06:49:53;;;;;;;33.80;17.20;;;;;;;0.58;93.55;100880.88;131466;1251;108733;-81
2024/03/19 06:52:58;;;;;;;32.40;18.40;;;;;;;0.62;93.45;100890.70;131515;1253;107621;-81
2024/03/19 06:56:09;;;;;;;32.80;17.10;;;;;;;0.64;93.21;100890.73;131293;1252;106643;-81
2024/03/19 06:59:15;;;;;;;33.00;17.50;;;;;;;0.62;93.27;100891.73;131287;1254;107681;-80
2024/03/19 07:02:21;;;;;;;28.70;15.40;;;;;;;0.68;92.70;100892.84;131437;1255;106912;-80
2024/03/19 07:05:28;;;;;;;24.90;14.30;;;;;;;0.74;92.76;100896.38;131470;1252;108537;-80
2024/03/19 07:08:34;;;;;;;23.60;13.90;;;;;;;0.68;92.82;100898.83;131467;1254;107322;-80
2024/03/19 07:11:39;;;;;;;23.20;12.60;;;;;;;0.60;93.03;100906.35;131495;1252;108734;-81
2024/03/19 07:14:47;;;;;;;29.50;16.30;;;;;;;0.67;93.13;100908.29;131469;1261;108675;-82
2024/03/19 07:17:52;;;;;;;26.70;15.60;;;;;;;0.74;93.05;100908.80;131491;1261;107682;-81
2024/03/19 07:20:57;;;;;;;24.60;14.30;;;;;;;0.81;92.70;100909.21;131464;1254;107390;-81
2024/03/19 07:24:03;;;;;;;21.80;12.60;;;;;;;0.77;92.56;100912.22;131485;1248;106178;-81
2024/03/19 07:27:08;;;;;;;26.00;14.30;;;;;;;0.76;92.74;100912.24;131509;1248;107017;-81
2024/03/19 07:30:15;;;;;;;21.90;12.60;;;;;;;0.88;92.78;100910.08;131519;1251;108429;-81
2024/03/19 07:33:20;;;;;;;21.40;12.00;;;;;;;0.99;92.63;100915.30;131513;1254;106862;-81
2024/03/19 07:36:25;;;;;;;23.70;14.40;;;;;;;1.04;92.30;100908.98;131477;1250;107708;-81
2024/03/19 07:39:30;;;;;;;27.10;15.20;;;;;;;1.15;92.57;100909.45;131349;1248;108573;-81
2024/03/19 07:42:36;;;;;;;25.80;15.10;;;;;;;1.17;92.25;100912.86;131398;1253;106775;-80
2024/03/19 07:45:41;;;;;;;28.30;15.00;;;;;;;1.19;92.34;100917.52;131408;1253;107107;-81
2024/03/19 07:48:46;;;;;;;25.80;14.00;;;;;;;1.25;92.42;100920.55;131505;1253;106805;-80
2024/03/19 07:51:51;;;;;;;23.50;13.60;;;;;;;1.27;92.24;100919.70;131318;1253;106583;-80
2024/03/19 07:54:57;;;;;;;27.30;14.90;;;;;;;1.36;92.45;100928.54;131553;1255;107283;-80
2024/03/19 07:58:02;;;;;;;24.70;13.80;;;;;;;1.44;92.31;100925.88;131520;1254;106634;-83
2024/03/19 08:01:07;;;;;;;24.80;14.40;;;;;;;1.57;92.46;100930.48;131538;1253;106984;-81
2024/03/19 08:04:13;;;;;;;24.60;14.90;;;;;;;1.68;92.06;100931.30;131550;1260;106518;-81
2024/03/19 08:07:18;;;;;;;27.90;15.40;;;;;;;1.67;91.54;100936.98;131553;1248;106397;-80
2024/03/19 08:10:24;;;;;;;25.20;13.40;;;;;;;1.61;92.05;100936.58;131490;1251;108704;-81
2024/03/19 08:13:29;;;;;;;20.40;11.50;;;;;;;1.59;92.04;100934.78;131545;1253;107748;-81
2024/03/19 08:16:34;;;;;;;21.90;13.00;;;;;;;1.58;92.16;100937.12;131542;1254;106904;-80
2024/03/19 08:19:39;;;;;;;23.50;14.50;;;;;;;1.67;92.48;100940.83;131509;1253;106823;-80
2024/03/19 08:22:44;;;;;;;25.30;15.00;;;;;;;1.72;92.34;100937.74;131464;1254;108701;-80
2024/03/19 08:25:50;;;;;;;24.60;14.90;;;;;;;1.64;92.48;100938.54;131477;1251;108235;-81
2024/03/19 08:28:55;;;;;;;21.60;12.90;;;;;;;1.70;92.67;100938.41;131425;1248;106420;-80
2024/03/19 08:32:01;;;;;;;23.50;13.80;;;;;;;1.78;92.62;100940.61;131452;1251;106600;-80
2024/03/19 08:35:09;;;;;;;18.40;11.60;;;;;;;1.83;92.60;100937.39;131507;1248;106245;-80
2024/03/19 08:38:14;;;;;;;20.20;12.50;;;;;;;1.93;92.48;100942.46;131636;1253;107548;-81
2024/03/19 08:41:19;;;;;;;20.40;13.00;;;;;;;1.96;91.94;100937.58;131532;1251;106379;-80
2024/03/19 08:44:24;;;;;;;25.50;14.90;;;;;;;2.00;92.23;100938.76;131526;1254;106743;-80
2024/03/19 08:47:29;;;;;;;22.40;14.00;;;;;;;2.06;92.38;100942.83;131536;1252;107675;-80
2024/03/19 08:50:35;;;;;;;21.80;13.40;;;;;;;2.11;92.33;100946.44;131502;1248;107983;-80
2024/03/19 08:53:40;;;;;;;20.70;12.80;;;;;;;2.09;92.07;100951.64;131593;1253;106357;-80
2024/03/19 08:56:45;;;;;;;22.50;14.30;;;;;;;2.04;92.16;100951.39;131486;1261;107245;-80
2024/03/19 08:59:52;;;;;;;22.80;13.40;;;;;;;1.99;92.38;100955.33;131515;1253;107601;-80
2024/03/19 09:02:58;;;;;;;23.40;14.20;;;;;;;1.99;92.52;100951.29;131549;1252;106103;-80
2024/03/19 09:06:04;;;;;;;21.80;12.90;;;;;;;2.03;92.73;100953.88;131518;1253;107635;-80
2024/03/19 09:09:10;;;;;;;25.40;14.90;;;;;;;2.09;92.98;100956.02;131515;1252;108823;-81
2024/03/19 09:12:15;;;;;;;24.70;14.70;;;;;;;2.17;92.82;100954.54;131486;1251;105641;-83
2024/03/19 09:15:22;;;;;;;22.50;14.10;;;;;;;2.15;92.69;100957.11;131523;1254;108865;-81
2024/03/19 09:18:27;;;;;;;23.80;15.60;;;;;;;2.19;92.67;100954.09;131487;1253;106134;-80
2024/03/19 09:21:32;;;;;;;25.10;15.50;;;;;;;2.42;92.97;100954.08;131559;1254;108122;-80
2024/03/19 09:24:38;;;;;;;20.80;12.90;;;;;;;2.57;92.21;100956.27;131537;1248;108865;-81
2024/03/19 09:27:43;;;;;;;19.20;12.00;;;;;;;2.60;91.63;100960.84;131529;1253;107671;-80
2024/03/19 09:30:48;;;;;;;18.70;12.00;;;;;;;2.70;91.99;100960.77;131496;1249;106635;-81
2024/03/19 09:33:53;;;;;;;18.20;10.80;;;;;;;2.81;91.84;100960.55;131466;1248;106170;-80
2024/03/19 09:36:59;;;;;;;17.60;11.30;;;;;;;3.00;92.22;100963.00;131479;1248;106327;-81
2024/03/19 09:40:06;;;;;;;17.90;12.00;;;;;;;3.33;92.11;100966.02;131304;1252;106830;-82
2024/03/19 09:43:21;;;;;;;17.60;12.00;;;;;;;3.46;90.59;100959.94;131517;1254;106661;-82
2024/03/19 09:46:27;;;;;;;18.50;11.80;;;;;;;3.58;91.01;100961.91;131501;1253;107591;-82
2024/03/19 09:49:34;;;;;;;18.50;13.10;;;;;;;3.59;90.36;100964.00;131488;1263;106652;-82
2024/03/19 09:52:39;;;;;;;17.50;11.50;;;;;;;3.54;89.42;100968.15;131573;1253;108708;-82
2024/03/19 09:55:45;;;;;;;17.20;11.10;;;;;;;3.63;89.87;100964.79;131410;1252;108808;-83
2024/03/19 09:58:52;;;;;;;16.60;11.70;;;;;;;3.80;90.22;100964.00;131511;1252;107580;-81
2024/03/19 10:01:58;;;;;;;22.10;13.60;;;;;;;3.96;89.51;100960.70;131539;1253;107444;-81
2024/03/19 10:05:03;;;;;;;15.00;10.70;;;;;;;4.11;89.71;100952.91;131518;1253;108706;-81
2024/03/19 10:08:12;;;;;;;16.00;11.10;;;;;;;4.26;89.50;100947.98;131556;1254;106640;-80
2024/03/19 10:11:17;;;;;;;32.40;16.80;;;;;;;4.47;89.18;100949.11;131504;1252;108814;-80
2024/03/19 10:14:22;;;;;;;18.00;11.90;;;;;;;4.52;88.30;100947.86;131513;1248;107563;-81
2024/03/19 10:17:28;;;;;;;13.10;9.40;;;;;;;4.33;85.69;100950.02;131372;1258;106701;-81
2024/03/19 10:20:36;;;;;;;13.20;8.70;;;;;;;4.46;88.52;100950.59;131281;1248;107971;-81
2024/03/19 10:23:42;;;;;;;11.50;8.30;;;;;;;4.82;88.10;100939.66;131359;1253;106594;-80
2024/03/19 10:26:49;;;;;;;16.90;11.50;;;;;;;4.96;87.56;100942.96;131540;1252;107664;-80
2024/03/19 10:29:56;;;;;;;16.30;11.50;;;;;;;5.03;86.20;100945.86;131401;1253;107194;-80
2024/03/19 10:33:07;;;;;;;49.40;28.00;;;;;;;4.97;85.79;100943.63;131357;1253;106376;-81
2024/03/19 10:36:22;;;;;;;18.70;12.80;;;;;;;5.01;85.81;100939.51;131450;1253;106683;-81
2024/03/19 10:39:28;;;;;;;19.70;13.20;;;;;;;5.07;86.36;100941.59;131416;1252;108881;-81
2024/03/19 10:42:33;;;;;;;14.40;10.10;;;;;;;5.29;85.46;100938.69;131492;1248;108626;-81
2024/03/19 10:45:40;;;;;;;16.10;11.40;;;;;;;5.49;87.24;100936.16;131468;1252;108773;-81
2024/03/19 10:48:46;;;;;;;13.20;9.40;;;;;;;5.52;85.89;100937.70;131487;1253;108690;-81
2024/03/19 10:51:58;;;;;;;14.30;10.60;;;;;;;5.41;86.05;100940.52;131456;1251;108733;-81
2024/03/19 10:55:04;;;;;;;12.80;9.00;;;;;;;5.31;84.36;100935.22;131377;1253;107833;-81
2024/03/19 10:58:11;;;;;;;47.20;23.00;;;;;;;5.29;85.04;100939.25;131455;1253;106619;-81
2024/03/19 11:01:18;;;;;;;13.50;9.50;;;;;;;5.39;86.16;100937.88;131428;1253;107252;-80
2024/03/19 11:04:28;;;;;;;13.70;9.80;;;;;;;5.48;85.14;100935.51;131476;1253;108512;-81
2024/03/19 11:07:33;;;;;;;12.20;8.90;;;;;;;5.58;85.17;100934.81;131478;1254;106715;-81
2024/03/19 11:10:40;;;;;;;13.50;9.60;;;;;;;5.55;82.01;100931.48;131487;1253;108616;-82
2024/03/19 11:13:51;;;;;;;15.60;10.70;;;;;;;5.48;82.87;100931.55;131465;1253;106591;-81
2024/03/19 11:16:57;;;;;;;13.50;9.90;;;;;;;5.42;81.94;100931.33;131454;1251;106538;-81
2024/03/19 11:20:06;;;;;;;11.70;9.00;;;;;;;5.39;82.70;100932.95;131473;1253;107694;-81
2024/03/19 11:23:14;;;;;;;11.10;8.80;;;;;;;5.48;82.69;100932.15;131459;1253;106577;-82
2024/03/19 11:26:23;;;;;;;26.30;14.90;;;;;;;5.58;81.58;100927.81;131467;1253;108774;-80
2024/03/19 11:29:31;;;;;;;16.10;10.50;;;;;;;5.59;81.53;100922.08;131483;1253;106763;-80
2024/03/19 11:32:38;;;;;;;14.50;10.50;;;;;;;5.61;82.36;100917.54;131462;1248;109185;-80
2024/03/19 11:35:47;;;;;;;13.30;8.80;;;;;;;5.68;83.00;100913.85;131469;1253;108058;-80
2024/03/19 11:38:54;;;;;;;9.70;7.30;;;;;;;5.80;79.37;100910.92;131320;1253;106531;-81
2024/03/19 11:42:00;;;;;;;9.50;7.30;;;;;;;5.86;78.26;100912.23;131748;1253;106820;-81
2024/03/19 11:45:07;;;;;;;10.60;8.00;;;;;;;5.93;76.75;100913.19;132146;1253;108592;-81
2024/03/19 11:48:17;;;;;;;11.90;8.50;;;;;;;5.99;80.26;100910.36;131530;1251;107049;-82
2024/03/19 11:51:23;;;;;;;12.80;9.10;;;;;;;6.01;78.90;100912.30;131423;1253;107010;-81
2024/03/19 11:54:28;;;;;;;19.50;11.50;;;;;;;6.05;79.50;100909.54;131809;1251;106510;-81
2024/03/19 11:57:34;;;;;;;11.70;8.60;;;;;;;6.11;79.48;100911.44;131671;1248;108691;-81
2024/03/19 12:00:39;;;;;;;13.40;9.50;;;;;;;6.01;76.29;100912.67;131481;1251;108746;-81
2024/03/19 12:03:44;;;;;;;11.90;8.20;;;;;;;5.95;76.66;100911.30;131312;1248;107859;-81
2024/03/19 12:06:51;;;;;;;10.50;7.50;;;;;;;5.90;77.38;100909.48;131575;1249;108582;-82
2024/03/19 12:09:56;;;;;;;9.30;6.90;;;;;;;5.85;75.50;100912.48;131494;1253;106288;-81
2024/03/19 12:13:02;;;;;;;17.30;10.40;;;;;;;5.87;75.43;100913.09;131123;1253;106846;-81
2024/03/19 12:16:08;;;;;;;9.30;7.10;;;;;;;5.98;74.82;100917.99;131387;1253;107370;-81
2024/03/19 12:19:15;;;;;;;12.40;8.90;;;;;;;5.90;73.66;100913.90;131578;1248;109333;-82
2024/03/19 12:22:21;;;;;;;12.80;8.10;;;;;;;6.00;76.66;100911.83;131345;1251;106519;-81
2024/03/19 12:25:30;;;;;;;11.10;7.70;;;;;;;6.11;76.84;100910.56;131488;1252;107736;-81
2024/03/19 12:28:39;;;;;;;12.20;8.70;;;;;;;6.21;74.97;100904.70;131452;1251;106581;-82
2024/03/19 12:31:49;;;;;;;12.90;8.30;;;;;;;6.18;75.20;100904.08;131297;1252;106979;-82
2024/03/19 12:35:05;;;;;;;10.90;8.00;;;;;;;6.22;73.78;100902.73;131125;1253;106724;-81
2024/03/19 12:38:13;;;;;;;10.20;7.80;;;;;;;6.24;75.00;100898.48;131178;1253;108825;-81
2024/03/19 12:41:18;;;;;;;14.30;9.20;;;;;;;6.32;74.19;100899.38;131188;1252;108665;-82
2024/03/19 12:44:25;;;;;;;11.40;8.30;;;;;;;6.24;72.35;100898.47;131127;1252;107118;-81
2024/03/19 12:47:31;;;;;;;10.70;8.00;;;;;;;6.23;73.88;100896.27;131325;1253;107664;-81
2024/03/19 12:50:36;;;;;;;10.80;8.00;;;;;;;6.25;73.06;100895.91;131398;1252;107659;-81
2024/03/19 12:53:41;;;;;;;10.20;7.50;;;;;;;6.31;73.29;100890.79;131274;1251;106426;-81
2024/03/19 12:56:47;;;;;;;10.20;7.50;;;;;;;6.28;73.14;100892.89;131311;1253;106786;-80
2024/03/19 12:59:53;;;;;;;9.40;7.10;;;;;;;6.17;71.51;100888.89;131257;1248;106801;-81
2024/03/19 13:02:58;;;;;;;8.90;6.80;;;;;;;6.20;72.74;100879.52;131359;1251;108870;-84
2024/03/19 13:06:05;;;;;;;10.10;7.30;;;;;;;6.24;73.18;100876.02;131319;1255;107819;-83
2024/03/19 13:09:11;;;;;;;9.80;7.30;;;;;;;6.31;73.17;100878.03;131406;1253;107702;-81
2024/03/19 13:12:17;;;;;;;10.00;7.10;;;;;;;6.25;72.24;100874.17;131314;1251;106752;-82
2024/03/19 13:15:22;;;;;;;10.30;7.90;;;;;;;6.21;72.74;100877.16;131295;1254;108491;-81
2024/03/19 13:18:29;;;;;;;9.70;7.10;;;;;;;6.14;71.51;100875.76;131696;1262;107869;-82
2024/03/19 13:21:35;;;;;;;10.40;7.50;;;;;;;6.19;72.78;100876.08;131852;1253;107762;-80
2024/03/19 13:24:40;;;;;;;13.10;7.30;;;;;;;6.22;71.01;100879.21;131181;1253;106635;-81
2024/03/19 13:27:45;;;;;;;9.40;6.80;;;;;;;6.24;69.95;100876.37;131318;1253;108645;-80
2024/03/19 13:30:50;;;;;;;9.20;7.00;;;;;;;6.22;69.04;100871.96;131318;1253;108601;-81
2024/03/19 13:33:56;;;;;;;10.00;7.20;;;;;;;6.33;67.85;100865.36;131723;1253;105842;-81
2024/03/19 13:37:02;;;;;;;15.10;10.30;;;;;;;6.33;67.04;100863.42;131432;1250;108356;-81
2024/03/19 13:40:10;;;;;;;10.80;8.20;;;;;;;6.27;69.10;100865.21;131354;1252;108742;-81
2024/03/19 13:43:16;;;;;;;10.20;7.70;;;;;;;6.31;70.98;100864.27;131274;1253;108728;-81
2024/03/19 13:46:21;;;;;;;12.70;8.20;;;;;;;6.27;71.34;100864.17;131292;1253;108810;-80
2024/03/19 13:49:28;;;;;;;12.90;8.30;;;;;;;6.24;70.66;100864.21;131207;1253;107796;-81
2024/03/19 13:52:34;;;;;;;12.50;8.90;;;;;;;6.21;71.74;100867.48;131244;1253;108399;-81
2024/03/19 13:55:42;;;;;;;10.90;8.10;;;;;;;6.10;69.51;100868.77;131274;1251;108735;-80
2024/03/19 13:58:47;;;;;;;12.00;8.30;;;;;;;5.98;70.61;100869.25;131881;1250;107712;-84